Station Historical Data
Daily Summary for March 16, 2012 Units:  Both    English   Metric
« Previous Day
Next Day »
Daily Weekly Monthly Yearly Custom
  High: Low: Average:
Temperature: 74.5 °F /  23.6 °C 58.6 °F /  14.8 °C 64.9 °F /  18.3 °C
Dew Point: 62.9 °F /  17.2 °C 56.9 °F /  13.8 °C 58.8 °F /  14.9 °C
Humidity: 94% 58% 82%
Wind Speed: 10.0mph /  16.1km/h - 2.7mph /  4.3km/h
Wind Gust: 13.0mph /  20.9km/h - -
Wind- - South
Pressure: 30.18 in /  1021.9 hPa 30.08 in /  1018.5 hPa -
Precipitation: 0.01 in /  0.25 mm    
Historical Graphs
 
 
Tabular Data for March 16, 2012
Time Temperature Dew Point Pressure Wind Wind Speed Wind Gust Humidity Rainfall Rate (Hourly) Conditions
00:00 60.8 °F /  16 °C 58.5 °F /  14.7 °C 30.15in /  1020.9hPa SE 1.0mph /  1.6km/h 4.0mph /  6.4km/h 92% 0.00in /  0mm
00:01 60.8 °F /  16 °C 58.5 °F /  14.7 °C 30.15in /  1020.9hPa SE 2.0mph /  3.2km/h 3.0mph /  4.8km/h 92% 0.00in /  0mm
00:06 60.7 °F /  15.9 °C 58.4 °F /  14.7 °C 30.15in /  1020.9hPa SE 3.0mph /  4.8km/h 3.0mph /  4.8km/h 92% 0.00in /  0mm
00:11 60.7 °F /  15.9 °C 58.4 °F /  14.7 °C 30.14in /  1020.5hPa ESE 5.0mph /  8km/h 5.0mph /  8km/h 92% 0.00in /  0mm
00:16 60.8 °F /  16 °C 58.5 °F /  14.7 °C 30.14in /  1020.5hPa East 4.0mph /  6.4km/h 5.0mph /  8km/h 92% 0.00in /  0mm
00:21 60.8 °F /  16 °C 58.5 °F /  14.7 °C 30.15in /  1020.9hPa ESE 1.0mph /  1.6km/h 4.0mph /  6.4km/h 92% 0.00in /  0mm
00:26 60.9 °F /  16.1 °C 58.6 °F /  14.8 °C 30.15in /  1020.9hPa ESE 4.0mph /  6.4km/h 6.0mph /  9.7km/h 92% 0.00in /  0mm
00:31 60.9 °F /  16.1 °C 58.6 °F /  14.8 °C 30.15in /  1020.9hPa SSE 4.0mph /  6.4km/h 7.0mph /  11.3km/h 92% 0.00in /  0mm
00:36 61.0 °F /  16.1 °C 58.7 °F /  14.8 °C 30.14in /  1020.5hPa SE 2.0mph /  3.2km/h 4.0mph /  6.4km/h 92% 0.00in /  0mm
00:41 61.0 °F /  16.1 °C 58.7 °F /  14.8 °C 30.15in /  1020.9hPa SE 3.0mph /  4.8km/h 4.0mph /  6.4km/h 92% 0.00in /  0mm
00:46 60.9 °F /  16.1 °C 58.6 °F /  14.8 °C 30.15in /  1020.9hPa ESE 3.0mph /  4.8km/h 3.0mph /  4.8km/h 92% 0.00in /  0mm
00:51 60.7 °F /  15.9 °C 58.4 °F /  14.7 °C 30.14in /  1020.5hPa ESE 2.0mph /  3.2km/h 4.0mph /  6.4km/h 92% 0.00in /  0mm
00:56 60.6 °F /  15.9 °C 58.3 °F /  14.6 °C 30.14in /  1020.5hPa East 2.0mph /  3.2km/h 3.0mph /  4.8km/h 92% 0.00in /  0mm
01:01 60.4 °F /  15.8 °C 58.1 °F /  14.5 °C 30.14in /  1020.5hPa East 2.0mph /  3.2km/h 2.0mph /  3.2km/h 92% 0.00in /  0mm
01:06 60.2 °F /  15.7 °C 57.9 °F /  14.4 °C 30.14in /  1020.5hPa ENE 2.0mph /  3.2km/h 2.0mph /  3.2km/h 92% 0.00in /  0mm
01:11 60.1 °F /  15.6 °C 58.1 °F /  14.5 °C 30.14in /  1020.5hPa East 2.0mph /  3.2km/h 2.0mph /  3.2km/h 93% 0.00in /  0mm
01:16 60.0 °F /  15.6 °C 57.7 °F /  14.3 °C 30.14in /  1020.5hPa ESE 2.0mph /  3.2km/h 2.0mph /  3.2km/h 92% 0.00in /  0mm
01:21 59.9 °F /  15.5 °C 57.9 °F /  14.4 °C 30.14in /  1020.5hPa East 1.0mph /  1.6km/h 2.0mph /  3.2km/h 93% 0.00in /  0mm
01:26 59.7 °F /  15.4 °C 57.7 °F /  14.3 °C 30.14in /  1020.5hPa ESE 1.0mph /  1.6km/h 2.0mph /  3.2km/h 93% 0.00in /  0mm
01:31 59.6 °F /  15.3 °C 57.6 °F /  14.2 °C 30.14in /  1020.5hPa ESE 1.0mph /  1.6km/h 2.0mph /  3.2km/h 93% 0.00in /  0mm
01:37 59.7 °F /  15.4 °C 57.7 °F /  14.3 °C 30.13in /  1020.2hPa East 3.0mph /  4.8km/h 3.0mph /  4.8km/h 93% 0.00in /  0mm
01:42 59.7 °F /  15.4 °C 57.7 °F /  14.3 °C 30.13in /  1020.2hPa East 4.0mph /  6.4km/h 5.0mph /  8km/h 93% 0.00in /  0mm
01:47 59.8 °F /  15.4 °C 57.8 °F /  14.3 °C 30.13in /  1020.2hPa ESE 3.0mph /  4.8km/h 5.0mph /  8km/h 93% 0.00in /  0mm
01:52 59.9 °F /  15.5 °C 57.9 °F /  14.4 °C 30.13in /  1020.2hPa ESE 4.0mph /  6.4km/h 6.0mph /  9.7km/h 93% 0.00in /  0mm
01:57 60.1 °F /  15.6 °C 58.1 °F /  14.5 °C 30.13in /  1020.2hPa ESE 7.0mph /  11.3km/h 7.0mph /  11.3km/h 93% 0.00in /  0mm
02:02 60.2 °F /  15.7 °C 58.2 °F /  14.6 °C 30.13in /  1020.2hPa ESE 5.0mph /  8km/h 6.0mph /  9.7km/h 93% 0.00in /  0mm
02:07 60.1 °F /  15.6 °C 58.1 °F /  14.5 °C 30.12in /  1019.9hPa ESE 6.0mph /  9.7km/h 6.0mph /  9.7km/h 93% 0.00in /  0mm
02:12 60.0 °F /  15.6 °C 58.0 °F /  14.4 °C 30.12in /  1019.9hPa ESE 6.0mph /  9.7km/h 6.0mph /  9.7km/h 93% 0.00in /  0mm
02:17 60.1 °F /  15.6 °C 58.1 °F /  14.5 °C 30.12in /  1019.9hPa ESE 5.0mph /  8km/h 7.0mph /  11.3km/h 93% 0.00in /  0mm
02:22 60.2 °F /  15.7 °C 58.2 °F /  14.6 °C 30.12in /  1019.9hPa SE 4.0mph /  6.4km/h 6.0mph /  9.7km/h 93% 0.00in /  0mm
02:27 60.2 °F /  15.7 °C 58.2 °F /  14.6 °C 30.12in /  1019.9hPa SE 2.0mph /  3.2km/h 4.0mph /  6.4km/h 93% 0.00in /  0mm
02:32 60.3 °F /  15.7 °C 58.3 °F /  14.6 °C 30.12in /  1019.9hPa SE 1.0mph /  1.6km/h 2.0mph /  3.2km/h 93% 0.00in /  0mm
02:37 60.2 °F /  15.7 °C 58.2 °F /  14.6 °C 30.12in /  1019.9hPa SE 3.0mph /  4.8km/h 4.0mph /  6.4km/h 93% 0.00in /  0mm
02:42 60.1 °F /  15.6 °C 58.1 °F /  14.5 °C 30.12in /  1019.9hPa SE 2.0mph /  3.2km/h 4.0mph /  6.4km/h 93% 0.00in /  0mm
02:47 60.0 °F /  15.6 °C 58.0 °F /  14.4 °C 30.12in /  1019.9hPa SE 2.0mph /  3.2km/h 3.0mph /  4.8km/h 93% 0.00in /  0mm
02:52 60.0 °F /  15.6 °C 58.0 °F /  14.4 °C 30.12in /  1019.9hPa SE 2.0mph /  3.2km/h 4.0mph /  6.4km/h 93% 0.00in /  0mm
02:57 60.0 °F /  15.6 °C 58.0 °F /  14.4 °C 30.11in /  1019.5hPa SE 2.0mph /  3.2km/h 4.0mph /  6.4km/h 93% 0.00in /  0mm
03:02 60.1 °F /  15.6 °C 58.1 °F /  14.5 °C 30.11in /  1019.5hPa SE 2.0mph /  3.2km/h 4.0mph /  6.4km/h 93% 0.00in /  0mm
03:07 60.2 °F /  15.7 °C 58.2 °F /  14.6 °C 30.11in /  1019.5hPa SSE 2.0mph /  3.2km/h 4.0mph /  6.4km/h 93% 0.00in /  0mm
03:12 60.3 °F /  15.7 °C 58.3 °F /  14.6 °C 30.11in /  1019.5hPa SE 4.0mph /  6.4km/h 6.0mph /  9.7km/h 93% 0.00in /  0mm
03:17 60.2 °F /  15.7 °C 58.2 °F /  14.6 °C 30.10in /  1019.2hPa SSE 3.0mph /  4.8km/h 7.0mph /  11.3km/h 93% 0.00in /  0mm
03:22 60.3 °F /  15.7 °C 58.3 °F /  14.6 °C 30.10in /  1019.2hPa SE 5.0mph /  8km/h 6.0mph /  9.7km/h 93% 0.00in /  0mm
03:27 60.1 °F /  15.6 °C 58.1 °F /  14.5 °C 30.10in /  1019.2hPa SSE 3.0mph /  4.8km/h 4.0mph /  6.4km/h 93% 0.00in /  0mm
03:32 59.9 °F /  15.5 °C 57.9 °F /  14.4 °C 30.09in /  1018.8hPa SE 3.0mph /  4.8km/h 3.0mph /  4.8km/h 93% 0.00in /  0mm
03:37 59.7 °F /  15.4 °C 57.7 °F /  14.3 °C 30.09in /  1018.8hPa South 2.0mph /  3.2km/h 4.0mph /  6.4km/h 93% 0.00in /  0mm
03:42 59.8 °F /  15.4 °C 57.8 °F /  14.3 °C 30.09in /  1018.8hPa SSE 2.0mph /  3.2km/h 3.0mph /  4.8km/h 93% 0.00in /  0mm
03:47 59.8 °F /  15.4 °C 57.8 °F /  14.3 °C 30.08in /  1018.5hPa SSE 2.0mph /  3.2km/h 2.0mph /  3.2km/h 93% 0.00in /  0mm
03:52 59.8 °F /  15.4 °C 57.8 °F /  14.3 °C 30.08in /  1018.5hPa SE 2.0mph /  3.2km/h 2.0mph /  3.2km/h 93% 0.00in /  0mm
03:57 59.8 °F /  15.4 °C 57.8 °F /  14.3 °C 30.08in /  1018.5hPa SE 2.0mph /  3.2km/h 2.0mph /  3.2km/h 93% 0.00in /  0mm
04:02 59.8 °F /  15.4 °C 57.8 °F /  14.3 °C 30.09in /  1018.8hPa South 2.0mph /  3.2km/h 2.0mph /  3.2km/h 93% 0.00in /  0mm
04:07 59.9 °F /  15.5 °C 57.9 °F /  14.4 °C 30.08in /  1018.5hPa SSE 2.0mph /  3.2km/h 3.0mph /  4.8km/h 93% 0.00in /  0mm
04:12 60.0 °F /  15.6 °C 58.0 °F /  14.4 °C 30.08in /  1018.5hPa SSE 3.0mph /  4.8km/h 4.0mph /  6.4km/h 93% 0.00in /  0mm
04:17 60.1 °F /  15.6 °C 58.1 °F /  14.5 °C 30.08in /  1018.5hPa SSE 2.0mph /  3.2km/h 3.0mph /  4.8km/h 93% 0.00in /  0mm
04:22 60.2 °F /  15.7 °C 58.2 °F /  14.6 °C 30.08in /  1018.5hPa SE 3.0mph /  4.8km/h 4.0mph /  6.4km/h 93% 0.00in /  0mm
04:27 60.1 °F /  15.6 °C 58.1 °F /  14.5 °C 30.08in /  1018.5hPa SE 3.0mph /  4.8km/h 4.0mph /  6.4km/h 93% 0.00in /  0mm
04:32 60.3 °F /  15.7 °C 58.0 °F /  14.4 °C 30.08in /  1018.5hPa SSE 1.0mph /  1.6km/h 4.0mph /  6.4km/h 92% 0.00in /  0mm
04:37 60.3 °F /  15.7 °C 58.3 °F /  14.6 °C 30.08in /  1018.5hPa SE 1.0mph /  1.6km/h 2.0mph /  3.2km/h 93% 0.00in /  0mm
04:42 60.1 °F /  15.6 °C 57.8 °F /  14.3 °C 30.09in /  1018.8hPa SE 1.0mph /  1.6km/h 2.0mph /  3.2km/h 92% 0.00in /  0mm
04:47 59.9 °F /  15.5 °C 57.6 °F /  14.2 °C 30.09in /  1018.8hPa SE 1.0mph /  1.6km/h 2.0mph /  3.2km/h 92% 0.00in /  0mm
04:52 59.9 °F /  15.5 °C 57.9 °F /  14.4 °C 30.08in /  1018.5hPa SE 3.0mph /  4.8km/h 3.0mph /  4.8km/h 93% 0.00in /  0mm
04:57 60.0 °F /  15.6 °C 58.0 °F /  14.4 °C 30.09in /  1018.8hPa SE 4.0mph /  6.4km/h 4.0mph /  6.4km/h 93% 0.00in /  0mm
05:02 60.0 °F /  15.6 °C 58.0 °F /  14.4 °C 30.09in /  1018.8hPa SE 4.0mph /  6.4km/h 5.0mph /  8km/h 93% 0.00in /  0mm
05:07 60.0 °F /  15.6 °C 58.0 °F /  14.4 °C 30.08in /  1018.5hPa SE 3.0mph /  4.8km/h 7.0mph /  11.3km/h 93% 0.00in /  0mm
05:12 60.1 °F /  15.6 °C 58.1 °F /  14.5 °C 30.08in /  1018.5hPa SE 5.0mph /  8km/h 6.0mph /  9.7km/h 93% 0.00in /  0mm
05:17 60.2 °F /  15.7 °C 58.2 °F /  14.6 °C 30.09in /  1018.8hPa SE 5.0mph /  8km/h 6.0mph /  9.7km/h 93% 0.00in /  0mm
05:22 60.1 °F /  15.6 °C 58.1 °F /  14.5 °C 30.09in /  1018.8hPa SSE 3.0mph /  4.8km/h 6.0mph /  9.7km/h 93% 0.00in /  0mm
05:27 60.0 °F /  15.6 °C 58.0 °F /  14.4 °C 30.09in /  1018.8hPa ESE 2.0mph /  3.2km/h 4.0mph /  6.4km/h 93% 0.00in /  0mm
05:32 60.0 °F /  15.6 °C 58.0 °F /  14.4 °C 30.09in /  1018.8hPa SE 3.0mph /  4.8km/h 4.0mph /  6.4km/h 93% 0.00in /  0mm
05:38 59.9 °F /  15.5 °C 57.9 °F /  14.4 °C 30.10in /  1019.2hPa SSW 1.0mph /  1.6km/h 2.0mph /  3.2km/h 93% 0.00in /  0mm
05:43 59.8 °F /  15.4 °C 57.8 °F /  14.3 °C 30.10in /  1019.2hPa Calm   1.0mph /  1.6km/h 93% 0.00in /  0mm
05:48 59.7 °F /  15.4 °C 57.7 °F /  14.3 °C 30.10in /  1019.2hPa Calm   1.0mph /  1.6km/h 93% 0.00in /  0mm
05:53 59.9 °F /  15.5 °C 58.2 °F /  14.6 °C 30.10in /  1019.2hPa ESE 3.0mph /  4.8km/h 4.0mph /  6.4km/h 94% 0.00in /  0mm
05:58 60.0 °F /  15.6 °C 58.0 °F /  14.4 °C 30.10in /  1019.2hPa SE 2.0mph /  3.2km/h 3.0mph /  4.8km/h 93% 0.00in /  0mm
06:03 60.0 °F /  15.6 °C 58.0 °F /  14.4 °C 30.09in /  1018.8hPa SE 4.0mph /  6.4km/h 4.0mph /  6.4km/h 93% 0.00in /  0mm
06:08 60.1 °F /  15.6 °C 58.1 °F /  14.5 °C 30.09in /  1018.8hPa SE 3.0mph /  4.8km/h 5.0mph /  8km/h 93% 0.00in /  0mm
06:13 60.2 °F /  15.7 °C 58.2 °F /  14.6 °C 30.10in /  1019.2hPa SE 3.0mph /  4.8km/h 4.0mph /  6.4km/h 93% 0.00in /  0mm
06:18 60.1 °F /  15.6 °C 58.1 °F /  14.5 °C 30.10in /  1019.2hPa SE 3.0mph /  4.8km/h 4.0mph /  6.4km/h 93% 0.00in /  0mm
06:23 60.1 °F /  15.6 °C 58.1 °F /  14.5 °C 30.10in /  1019.2hPa SSE 4.0mph /  6.4km/h 4.0mph /  6.4km/h 93% 0.00in /  0mm
06:28 60.2 °F /  15.7 °C 58.2 °F /  14.6 °C 30.10in /  1019.2hPa SE 3.0mph /  4.8km/h 5.0mph /  8km/h 93% 0.00in /  0mm
06:33 60.3 °F /  15.7 °C 58.3 °F /  14.6 °C 30.10in /  1019.2hPa SE 3.0mph /  4.8km/h 4.0mph /  6.4km/h 93% 0.00in /  0mm
06:38 60.4 °F /  15.8 °C 58.4 °F /  14.7 °C 30.10in /  1019.2hPa ESE 4.0mph /  6.4km/h 6.0mph /  9.7km/h 93% 0.00in /  0mm
06:43 60.6 °F /  15.9 °C 58.6 °F /  14.8 °C 30.11in /  1019.5hPa ESE 4.0mph /  6.4km/h 5.0mph /  8km/h 93% 0.00in /  0mm
06:48 60.6 °F /  15.9 °C 58.6 °F /  14.8 °C 30.11in /  1019.5hPa SE 3.0mph /  4.8km/h 4.0mph /  6.4km/h 93% 0.00in /  0mm
06:53 60.6 °F /  15.9 °C 58.6 °F /  14.8 °C 30.11in /  1019.5hPa SE 3.0mph /  4.8km/h 5.0mph /  8km/h 93% 0.00in /  0mm
06:58 60.5 °F /  15.8 °C 58.5 °F /  14.7 °C 30.11in /  1019.5hPa SE 3.0mph /  4.8km/h 5.0mph /  8km/h 93% 0.00in /  0mm
07:03 60.4 °F /  15.8 °C 58.4 °F /  14.7 °C 30.11in /  1019.5hPa SSE 3.0mph /  4.8km/h 4.0mph /  6.4km/h 93% 0.00in /  0mm
07:08 60.4 °F /  15.8 °C 58.4 °F /  14.7 °C 30.11in /  1019.5hPa ESE 5.0mph /  8km/h 5.0mph /  8km/h 93% 0.00in /  0mm
07:13 60.2 °F /  15.7 °C 58.2 °F /  14.6 °C 30.11in /  1019.5hPa ESE 3.0mph /  4.8km/h 5.0mph /  8km/h 93% 0.00in /  0mm
07:18 60.0 °F /  15.6 °C 58.0 °F /  14.4 °C 30.12in /  1019.9hPa ESE 2.0mph /  3.2km/h 5.0mph /  8km/h 93% 0.00in /  0mm
07:23 59.7 °F /  15.4 °C 57.7 °F /  14.3 °C 30.12in /  1019.9hPa ESE 1.0mph /  1.6km/h 3.0mph /  4.8km/h 93% 0.00in /  0mm
07:28 59.4 °F /  15.2 °C 57.4 °F /  14.1 °C 30.12in /  1019.9hPa East 1.0mph /  1.6km/h 2.0mph /  3.2km/h 93% 0.00in /  0mm
07:33 59.1 °F /  15.1 °C 57.1 °F /  13.9 °C 30.12in /  1019.9hPa ESE 2.0mph /  3.2km/h 2.0mph /  3.2km/h 93% 0.00in /  0mm
07:38 59.0 °F /  15 °C 57.3 °F /  14.1 °C 30.12in /  1019.9hPa ESE 2.0mph /  3.2km/h 3.0mph /  4.8km/h 94% 0.00in /  0mm
07:43 58.8 °F /  14.9 °C 57.1 °F /  13.9 °C 30.12in /  1019.9hPa Calm   3.0mph /  4.8km/h 94% 0.00in /  0mm
07:48 58.6 °F /  14.8 °C 56.9 °F /  13.8 °C 30.12in /  1019.9hPa Calm     94% 0.00in /  0mm
07:53 58.7 °F /  14.8 °C 57.0 °F /  13.9 °C 30.12in /  1019.9hPa ESE 2.0mph /  3.2km/h 2.0mph /  3.2km/h 94% 0.00in /  0mm
07:58 58.8 °F /  14.9 °C 57.1 °F /  13.9 °C 30.13in /  1020.2hPa ESE 3.0mph /  4.8km/h 3.0mph /  4.8km/h 94% 0.00in /  0mm
08:03 58.9 °F /  14.9 °C 57.2 °F /  14 °C 30.13in /  1020.2hPa SE 3.0mph /  4.8km/h 3.0mph /  4.8km/h 94% 0.00in /  0mm
08:09 59.0 °F /  15 °C 57.3 °F /  14.1 °C 30.13in /  1020.2hPa SE 2.0mph /  3.2km/h 4.0mph /  6.4km/h 94% 0.00in /  0mm
08:14 59.2 °F /  15.1 °C 57.5 °F /  14.2 °C 30.13in /  1020.2hPa SE 2.0mph /  3.2km/h 4.0mph /  6.4km/h 94% 0.00in /  0mm
08:19 59.6 °F /  15.3 °C 57.9 °F /  14.4 °C 30.13in /  1020.2hPa SSE 4.0mph /  6.4km/h 4.0mph /  6.4km/h 94% 0.00in /  0mm
08:24 59.9 °F /  15.5 °C 58.2 °F /  14.6 °C 30.13in /  1020.2hPa SE 3.0mph /  4.8km/h 5.0mph /  8km/h 94% 0.00in /  0mm
08:29 60.1 °F /  15.6 °C 58.1 °F /  14.5 °C 30.13in /  1020.2hPa SE 3.0mph /  4.8km/h 5.0mph /  8km/h 93% 0.00in /  0mm
08:34 60.3 °F /  15.7 °C 58.3 °F /  14.6 °C 30.14in /  1020.5hPa SE 3.0mph /  4.8km/h 4.0mph /  6.4km/h 93% 0.00in /  0mm
08:39 60.6 °F /  15.9 °C 58.6 °F /  14.8 °C 30.14in /  1020.5hPa SE 4.0mph /  6.4km/h 5.0mph /  8km/h 93% 0.00in /  0mm
08:44 60.7 °F /  15.9 °C 58.7 °F /  14.8 °C 30.14in /  1020.5hPa SE 4.0mph /  6.4km/h 5.0mph /  8km/h 93% 0.00in /  0mm
08:49 60.8 °F /  16 °C 58.8 °F /  14.9 °C 30.14in /  1020.5hPa SSE 3.0mph /  4.8km/h 4.0mph /  6.4km/h 93% 0.00in /  0mm
08:54 60.9 °F /  16.1 °C 58.9 °F /  14.9 °C 30.14in /  1020.5hPa SSE 3.0mph /  4.8km/h 4.0mph /  6.4km/h 93% 0.00in /  0mm
08:59 60.9 °F /  16.1 °C 58.6 °F /  14.8 °C 30.14in /  1020.5hPa SE 3.0mph /  4.8km/h 6.0mph /  9.7km/h 92% 0.00in /  0mm
09:04 60.9 °F /  16.1 °C 58.6 °F /  14.8 °C 30.15in /  1020.9hPa South 3.0mph /  4.8km/h 5.0mph /  8km/h 92% 0.00in /  0mm
09:09 60.9 °F /  16.1 °C 58.6 °F /  14.8 °C 30.15in /  1020.9hPa East 2.0mph /  3.2km/h 3.0mph /  4.8km/h 92% 0.00in /  0mm
09:14 60.9 °F /  16.1 °C 58.6 °F /  14.8 °C 30.15in /  1020.9hPa Calm   2.0mph /  3.2km/h 92% 0.00in /  0mm
09:19 60.9 °F /  16.1 °C 58.6 °F /  14.8 °C 30.15in /  1020.9hPa SSE 1.0mph /  1.6km/h 2.0mph /  3.2km/h 92% 0.00in /  0mm
09:24 60.9 °F /  16.1 °C 58.6 °F /  14.8 °C 30.15in /  1020.9hPa SSE 3.0mph /  4.8km/h 4.0mph /  6.4km/h 92% 0.00in /  0mm
09:29 61.0 °F /  16.1 °C 58.7 °F /  14.8 °C 30.14in /  1020.5hPa SE 2.0mph /  3.2km/h 3.0mph /  4.8km/h 92% 0.00in /  0mm
09:34 61.2 °F /  16.2 °C 58.9 °F /  14.9 °C 30.14in /  1020.5hPa SE 2.0mph /  3.2km/h 4.0mph /  6.4km/h 92% 0.00in /  0mm
09:39 61.2 °F /  16.2 °C 58.9 °F /  14.9 °C 30.14in /  1020.5hPa SE 5.0mph /  8km/h 5.0mph /  8km/h 92% 0.00in /  0mm
09:44 61.3 °F /  16.3 °C 59.0 °F /  15 °C 30.14in /  1020.5hPa South 3.0mph /  4.8km/h 4.0mph /  6.4km/h 92% 0.00in /  0mm
09:49 61.4 °F /  16.3 °C 59.1 °F /  15.1 °C 30.14in /  1020.5hPa SSE 3.0mph /  4.8km/h 4.0mph /  6.4km/h 92% 0.00in /  0mm
09:54 61.5 °F /  16.4 °C 59.2 °F /  15.1 °C 30.15in /  1020.9hPa SE 2.0mph /  3.2km/h 2.0mph /  3.2km/h 92% 0.00in /  0mm
09:59 61.7 °F /  16.5 °C 59.4 °F /  15.2 °C 30.15in /  1020.9hPa SE 3.0mph /  4.8km/h 3.0mph /  4.8km/h 92% 0.00in /  0mm
10:04 61.9 °F /  16.6 °C 59.5 °F /  15.3 °C 30.15in /  1020.9hPa SE 2.0mph /  3.2km/h 4.0mph /  6.4km/h 92% 0.00in /  0mm
10:09 62.1 °F /  16.7 °C 59.8 °F /  15.4 °C 30.15in /  1020.9hPa SE 3.0mph /  4.8km/h 4.0mph /  6.4km/h 92% 0.00in /  0mm
10:14 62.3 °F /  16.8 °C 59.6 °F /  15.3 °C 30.15in /  1020.9hPa SE 3.0mph /  4.8km/h 3.0mph /  4.8km/h 91% 0.00in /  0mm
10:19 62.5 °F /  16.9 °C 59.8 °F /  15.4 °C 30.15in /  1020.9hPa SE 4.0mph /  6.4km/h 4.0mph /  6.4km/h 91% 0.00in /  0mm
10:24 62.6 °F /  17 °C 59.6 °F /  15.3 °C 30.16in /  1021.2hPa Calm   3.0mph /  4.8km/h 90% 0.00in /  0mm
10:30 63.0 °F /  17.2 °C 60.3 °F /  15.7 °C 30.16in /  1021.2hPa West 1.0mph /  1.6km/h 2.0mph /  3.2km/h 91% 0.00in /  0mm
10:35 63.1 °F /  17.3 °C 60.1 °F /  15.6 °C 30.16in /  1021.2hPa Calm   2.0mph /  3.2km/h 90% 0.00in /  0mm
10:40 63.4 °F /  17.4 °C 60.4 °F /  15.8 °C 30.17in /  1021.6hPa West 1.0mph /  1.6km/h 3.0mph /  4.8km/h 90% 0.00in /  0mm
10:45 63.5 °F /  17.5 °C 60.5 °F /  15.8 °C 30.17in /  1021.6hPa WNW 2.0mph /  3.2km/h 3.0mph /  4.8km/h 90% 0.00in /  0mm
10:50 63.8 °F /  17.7 °C 60.8 °F /  16 °C 30.17in /  1021.6hPa WNW 1.0mph /  1.6km/h 3.0mph /  4.8km/h 90% 0.00in /  0mm
10:55 63.9 °F /  17.7 °C 61.2 °F /  16.2 °C 30.17in /  1021.6hPa SSW 2.0mph /  3.2km/h 3.0mph /  4.8km/h 91% 0.00in /  0mm
11:00 63.9 °F /  17.7 °C 60.6 °F /  15.9 °C 30.17in /  1021.6hPa WSW 2.0mph /  3.2km/h 3.0mph /  4.8km/h 89% 0.00in /  0mm
11:05 63.9 °F /  17.7 °C 60.6 °F /  15.9 °C 30.17in /  1021.6hPa WSW 3.0mph /  4.8km/h 4.0mph /  6.4km/h 89% 0.00in /  0mm
11:10 64.0 °F /  17.8 °C 60.7 °F /  15.9 °C 30.17in /  1021.6hPa WSW 2.0mph /  3.2km/h 3.0mph /  4.8km/h 89% 0.00in /  0mm
11:15 64.0 °F /  17.8 °C 60.7 °F /  15.9 °C 30.17in /  1021.6hPa WSW 2.0mph /  3.2km/h 4.0mph /  6.4km/h 89% 0.00in /  0mm
11:20 64.1 °F /  17.8 °C 60.8 °F /  16 °C 30.17in /  1021.6hPa West 1.0mph /  1.6km/h 2.0mph /  3.2km/h 89% 0.00in /  0mm
11:25 64.1 °F /  17.8 °C 60.8 °F /  16 °C 30.17in /  1021.6hPa West 2.0mph /  3.2km/h 3.0mph /  4.8km/h 89% 0.00in /  0mm
11:30 64.2 °F /  17.9 °C 61.2 °F /  16.2 °C 30.17in /  1021.6hPa West 2.0mph /  3.2km/h 4.0mph /  6.4km/h 90% 0.00in /  0mm
11:35 64.3 °F /  17.9 °C 61.0 °F /  16.1 °C 30.17in /  1021.6hPa WNW 1.0mph /  1.6km/h 2.0mph /  3.2km/h 89% 0.00in /  0mm
11:40 64.4 °F /  18 °C 61.1 °F /  16.2 °C 30.17in /  1021.6hPa WNW 3.0mph /  4.8km/h 3.0mph /  4.8km/h 89% 0.00in /  0mm
11:45 64.5 °F /  18.1 °C 60.9 °F /  16.1 °C 30.17in /  1021.6hPa West 3.0mph /  4.8km/h 4.0mph /  6.4km/h 88% 0.00in /  0mm
11:47 64.5 °F /  18.1 °C 60.9 °F /  16.1 °C 30.17in /  1021.6hPa West 2.0mph /  3.2km/h 4.0mph /  6.4km/h 88% 0.00in /  0mm
11:52 64.7 °F /  18.2 °C 61.1 °F /  16.2 °C 30.17in /  1021.6hPa WNW 2.0mph /  3.2km/h 4.0mph /  6.4km/h 88% 0.00in /  0mm
11:57 64.8 °F /  18.2 °C 61.2 °F /  16.2 °C 30.17in /  1021.6hPa West 2.0mph /  3.2km/h 4.0mph /  6.4km/h 88% 0.00in /  0mm
12:02 65.1 °F /  18.4 °C 61.5 °F /  16.4 °C 30.17in /  1021.6hPa WNW 3.0mph /  4.8km/h 5.0mph /  8km/h 88% 0.00in /  0mm
12:07 65.4 °F /  18.6 °C 61.4 °F /  16.3 °C 30.17in /  1021.6hPa WNW 6.0mph /  9.7km/h 6.0mph /  9.7km/h 87% 0.00in /  0mm
12:12 65.4 °F /  18.6 °C 61.4 °F /  16.3 °C 30.18in /  1021.9hPa NNW 2.0mph /  3.2km/h 5.0mph /  8km/h 87% 0.00in /  0mm
12:17 65.5 °F /  18.6 °C 61.2 °F /  16.2 °C 30.18in /  1021.9hPa WNW 3.0mph /  4.8km/h 5.0mph /  8km/h 86% 0.00in /  0mm
12:22 65.7 °F /  18.7 °C 61.4 °F /  16.3 °C 30.18in /  1021.9hPa NW 4.0mph /  6.4km/h 5.0mph /  8km/h 86% 0.00in /  0mm
12:27 65.8 °F /  18.8 °C 61.5 °F /  16.4 °C 30.18in /  1021.9hPa WNW 3.0mph /  4.8km/h 6.0mph /  9.7km/h 86% 0.00in /  0mm
12:32 65.8 °F /  18.8 °C 61.2 °F /  16.2 °C 30.18in /  1021.9hPa WNW 3.0mph /  4.8km/h 6.0mph /  9.7km/h 85% 0.00in /  0mm
12:37 66.2 °F /  19 °C 62.2 °F /  16.8 °C 30.18in /  1021.9hPa West 1.0mph /  1.6km/h 3.0mph /  4.8km/h 87% 0.00in /  0mm
12:42 66.0 °F /  18.9 °C 61.4 °F /  16.3 °C 30.18in /  1021.9hPa WNW 2.0mph /  3.2km/h 4.0mph /  6.4km/h 85% 0.00in /  0mm
12:47 66.0 °F /  18.9 °C 61.4 °F /  16.3 °C 30.17in /  1021.6hPa WNW 3.0mph /  4.8km/h 3.0mph /  4.8km/h 85% 0.00in /  0mm
12:52 66.0 °F /  18.9 °C 61.4 °F /  16.3 °C 30.17in /  1021.6hPa NW 1.0mph /  1.6km/h 2.0mph /  3.2km/h 85% 0.00in /  0mm
12:57 66.2 °F /  19 °C 61.6 °F /  16.4 °C 30.17in /  1021.6hPa Calm   2.0mph /  3.2km/h 85% 0.00in /  0mm
13:02 66.9 °F /  19.4 °C 62.2 °F /  16.8 °C 30.17in /  1021.6hPa SE 1.0mph /  1.6km/h 3.0mph /  4.8km/h 85% 0.00in /  0mm
13:07 67.5 °F /  19.7 °C 62.2 °F /  16.8 °C 30.17in /  1021.6hPa Calm   2.0mph /  3.2km/h 83% 0.00in /  0mm
13:12 67.7 °F /  19.8 °C 62.7 °F /  17.1 °C 30.17in /  1021.6hPa West 2.0mph /  3.2km/h 4.0mph /  6.4km/h 84% 0.00in /  0mm
13:17 67.9 °F /  19.9 °C 62.5 °F /  16.9 °C 30.18in /  1021.9hPa WSW 5.0mph /  8km/h 5.0mph /  8km/h 83% 0.00in /  0mm
13:22 67.6 °F /  19.8 °C 61.9 °F /  16.6 °C 30.18in /  1021.9hPa West 1.0mph /  1.6km/h 5.0mph /  8km/h 82% 0.00in /  0mm
13:28 67.5 °F /  19.7 °C 61.8 °F /  16.6 °C 30.18in /  1021.9hPa WNW 3.0mph /  4.8km/h 6.0mph /  9.7km/h 82% 0.00in /  0mm
13:33 67.9 °F /  19.9 °C 62.9 °F /  17.2 °C 30.17in /  1021.6hPa WSW 5.0mph /  8km/h 7.0mph /  11.3km/h 84% 0.00in /  0mm
13:38 67.9 °F /  19.9 °C 61.9 °F /  16.6 °C 30.17in /  1021.6hPa West 3.0mph /  4.8km/h 7.0mph /  11.3km/h 81% 0.00in /  0mm
13:43 68.1 °F /  20.1 °C 62.4 °F /  16.9 °C 30.17in /  1021.6hPa WSW 4.0mph /  6.4km/h 6.0mph /  9.7km/h 82% 0.00in /  0mm
13:48 68.2 °F /  20.1 °C 61.8 °F /  16.6 °C 30.17in /  1021.6hPa SSW 8.0mph /  12.9km/h 9.0mph /  14.5km/h 80% 0.00in /  0mm
13:53 68.1 °F /  20.1 °C 61.0 °F /  16.1 °C 30.16in /  1021.2hPa WSW 8.0mph /  12.9km/h 9.0mph /  14.5km/h 78% 0.00in /  0mm
13:58 68.0 °F /  20 °C 61.2 °F /  16.2 °C 30.15in /  1020.9hPa West 3.0mph /  4.8km/h 5.0mph /  8km/h 79% 0.00in /  0mm
14:03 68.2 °F /  20.1 °C 61.1 °F /  16.2 °C 30.15in /  1020.9hPa WSW 2.0mph /  3.2km/h 4.0mph /  6.4km/h 78% 0.00in /  0mm
14:08 68.1 °F /  20.1 °C 60.3 °F /  15.7 °C 30.14in /  1020.5hPa SW 6.0mph /  9.7km/h 6.0mph /  9.7km/h 76% 0.00in /  0mm
14:13 68.0 °F /  20 °C 60.5 °F /  15.8 °C 30.14in /  1020.5hPa West 5.0mph /  8km/h 7.0mph /  11.3km/h 77% 0.00in /  0mm
14:18 68.0 °F /  20 °C 60.5 °F /  15.8 °C 30.14in /  1020.5hPa WNW 4.0mph /  6.4km/h 5.0mph /  8km/h 77% 0.00in /  0mm
14:23 68.6 °F /  20.3 °C 61.1 °F /  16.2 °C 30.14in /  1020.5hPa WSW 6.0mph /  9.7km/h 6.0mph /  9.7km/h 77% 0.00in /  0mm
14:28 69.2 °F /  20.7 °C 61.0 °F /  16.1 °C 30.14in /  1020.5hPa WSW 6.0mph /  9.7km/h 9.0mph /  14.5km/h 75% 0.00in /  0mm
14:33 69.4 °F /  20.8 °C 60.4 °F /  15.8 °C 30.14in /  1020.5hPa WSW 5.0mph /  8km/h 9.0mph /  14.5km/h 73% 0.00in /  0mm
14:38 69.7 °F /  20.9 °C 61.0 °F /  16.1 °C 30.14in /  1020.5hPa SW 7.0mph /  11.3km/h 7.0mph /  11.3km/h 74% 0.00in /  0mm
14:43 69.9 °F /  21.1 °C 61.6 °F /  16.4 °C 30.13in /  1020.2hPa WSW 4.0mph /  6.4km/h 7.0mph /  11.3km/h 75% 0.00in /  0mm
14:48 70.7 °F /  21.5 °C 61.2 °F /  16.2 °C 30.13in /  1020.2hPa SSW 1.0mph /  1.6km/h 4.0mph /  6.4km/h 72% 0.00in /  0mm
14:53 71.3 °F /  21.8 °C 62.2 °F /  16.8 °C 30.13in /  1020.2hPa WSW 2.0mph /  3.2km/h 9.0mph /  14.5km/h 73% 0.00in /  0mm
14:58 71.8 °F /  22.1 °C 61.5 °F /  16.4 °C 30.13in /  1020.2hPa SW 5.0mph /  8km/h 13.0mph /  20.9km/h 70% 0.00in /  0mm
15:03 71.7 °F /  22.1 °C 60.2 °F /  15.7 °C 30.12in /  1019.9hPa SW 4.0mph /  6.4km/h 11.0mph /  17.7km/h 67% 0.00in /  0mm
15:08 71.3 °F /  21.8 °C 61.0 °F /  16.1 °C 30.12in /  1019.9hPa SW 5.0mph /  8km/h 11.0mph /  17.7km/h 70% 0.00in /  0mm
15:13 71.1 °F /  21.7 °C 60.0 °F /  15.6 °C 30.12in /  1019.9hPa WSW 7.0mph /  11.3km/h 12.0mph /  19.3km/h 68% 0.00in /  0mm
15:18 71.3 °F /  21.8 °C 61.8 °F /  16.6 °C 30.11in /  1019.5hPa SSW 5.0mph /  8km/h 8.0mph /  12.9km/h 72% 0.00in /  0mm
15:23 72.3 °F /  22.4 °C 61.6 °F /  16.4 °C 30.11in /  1019.5hPa SW 5.0mph /  8km/h 9.0mph /  14.5km/h 69% 0.00in /  0mm
15:28 73.1 °F /  22.8 °C 61.5 °F /  16.4 °C 30.11in /  1019.5hPa SW 10.0mph /  16.1km/h 11.0mph /  17.7km/h 67% 0.00in /  0mm
15:33 73.4 °F /  23 °C 60.9 °F /  16.1 °C 30.10in /  1019.2hPa SW 4.0mph /  6.4km/h 10.0mph /  16.1km/h 65% 0.00in /  0mm
15:39 73.1 °F /  22.8 °C 60.7 °F /  15.9 °C 30.10in /  1019.2hPa WSW 4.0mph /  6.4km/h 8.0mph /  12.9km/h 65% 0.00in /  0mm
15:44 72.9 °F /  22.7 °C 60.0 °F /  15.6 °C 30.10in /  1019.2hPa SSW 6.0mph /  9.7km/h 7.0mph /  11.3km/h 64% 0.00in /  0mm
15:49 72.7 °F /  22.6 °C 58.5 °F /  14.7 °C 30.11in /  1019.5hPa SSW 7.0mph /  11.3km/h 10.0mph /  16.1km/h 61% 0.00in /  0mm
15:54 72.5 °F /  22.5 °C 59.6 °F /  15.3 °C 30.11in /  1019.5hPa WSW 6.0mph /  9.7km/h 8.0mph /  12.9km/h 64% 0.00in /  0mm
15:59 72.5 °F /  22.5 °C 59.6 °F /  15.3 °C 30.10in /  1019.2hPa SW 8.0mph /  12.9km/h 10.0mph /  16.1km/h 64% 0.00in /  0mm
16:04 72.8 °F /  22.7 °C 60.4 °F /  15.8 °C 30.10in /  1019.2hPa WSW 6.0mph /  9.7km/h 10.0mph /  16.1km/h 65% 0.00in /  0mm
16:09 72.9 °F /  22.7 °C 58.7 °F /  14.8 °C 30.10in /  1019.2hPa SW 7.0mph /  11.3km/h 10.0mph /  16.1km/h 61% 0.00in /  0mm
16:14 72.7 °F /  22.6 °C 58.5 °F /  14.7 °C 30.10in /  1019.2hPa SW 6.0mph /  9.7km/h 11.0mph /  17.7km/h 61% 0.00in /  0mm
16:19 72.5 °F /  22.5 °C 57.4 °F /  14.1 °C 30.10in /  1019.2hPa WSW 3.0mph /  4.8km/h 10.0mph /  16.1km/h 59% 0.00in /  0mm
16:24 72.5 °F /  22.5 °C 57.8 °F /  14.3 °C 30.10in /  1019.2hPa WSW 3.0mph /  4.8km/h 8.0mph /  12.9km/h 60% 0.00in /  0mm
16:29 72.5 °F /  22.5 °C 58.3 °F /  14.6 °C 30.10in /  1019.2hPa SW 7.0mph /  11.3km/h 11.0mph /  17.7km/h 61% 0.00in /  0mm
16:34 72.4 °F /  22.4 °C 58.7 °F /  14.8 °C 30.10in /  1019.2hPa SW 4.0mph /  6.4km/h 9.0mph /  14.5km/h 62% 0.00in /  0mm
16:39 72.6 °F /  22.6 °C 57.5 °F /  14.2 °C 30.10in /  1019.2hPa SSW 6.0mph /  9.7km/h 9.0mph /  14.5km/h 59% 0.00in /  0mm
16:44 72.6 °F /  22.6 °C 57.5 °F /  14.2 °C 30.09in /  1018.8hPa WSW 6.0mph /  9.7km/h 12.0mph /  19.3km/h 59% 0.00in /  0mm
16:49 72.8 °F /  22.7 °C 58.1 °F /  14.5 °C 30.09in /  1018.8hPa SSW 5.0mph /  8km/h 7.0mph /  11.3km/h 60% 0.00in /  0mm
16:54 73.1 °F /  22.8 °C 58.9 °F /  14.9 °C 30.09in /  1018.8hPa WSW 4.0mph /  6.4km/h 7.0mph /  11.3km/h 61% 0.00in /  0mm
16:59 73.6 °F /  23.1 °C 57.9 °F /  14.4 °C 30.09in /  1018.8hPa WSW 6.0mph /  9.7km/h 8.0mph /  12.9km/h 58% 0.00in /  0mm
17:04 74.4 °F /  23.6 °C 59.2 °F /  15.1 °C 30.09in /  1018.8hPa West 5.0mph /  8km/h 9.0mph /  14.5km/h 59% 0.00in /  0mm
17:09 74.5 °F /  23.6 °C 59.2 °F /  15.1 °C 30.09in /  1018.8hPa WSW 8.0mph /  12.9km/h 11.0mph /  17.7km/h 59% 0.00in /  0mm
17:14 74.2 °F /  23.4 °C 58.5 °F /  14.7 °C 30.09in /  1018.8hPa WNW 4.0mph /  6.4km/h 8.0mph /  12.9km/h 58% 0.00in /  0mm
17:19 74.0 °F /  23.3 °C 58.3 °F /  14.6 °C 30.09in /  1018.8hPa WSW 4.0mph /  6.4km/h 5.0mph /  8km/h 58% 0.00in /  0mm
17:24 73.8 °F /  23.2 °C 58.6 °F /  14.8 °C 30.08in /  1018.5hPa West 2.0mph /  3.2km/h 6.0mph /  9.7km/h 59% 0.00in /  0mm
17:29 73.5 °F /  23.1 °C 58.8 °F /  14.9 °C 30.08in /  1018.5hPa SSW 5.0mph /  8km/h 6.0mph /  9.7km/h 60% 0.00in /  0mm
17:34 73.2 °F /  22.9 °C 58.5 °F /  14.7 °C 30.08in /  1018.5hPa SW 6.0mph /  9.7km/h 9.0mph /  14.5km/h 60% 0.00in /  0mm
17:39 73.0 °F /  22.8 °C 58.3 °F /  14.6 °C 30.08in /  1018.5hPa WNW 6.0mph /  9.7km/h 10.0mph /  16.1km/h 60% 0.00in /  0mm
17:44 72.8 °F /  22.7 °C 58.6 °F /  14.8 °C 30.08in /  1018.5hPa WSW 5.0mph /  8km/h 6.0mph /  9.7km/h 61% 0.00in /  0mm
17:49 72.7 °F /  22.6 °C 58.9 °F /  14.9 °C 30.08in /  1018.5hPa SW 3.0mph /  4.8km/h 5.0mph /  8km/h 62% 0.00in /  0mm
17:54 72.7 °F /  22.6 °C 59.4 °F /  15.2 °C 30.08in /  1018.5hPa WSW 3.0mph /  4.8km/h 3.0mph /  4.8km/h 63% 0.00in /  0mm
17:59 72.6 °F /  22.6 °C 58.4 °F /  14.7 °C 30.08in /  1018.5hPa WSW 3.0mph /  4.8km/h 9.0mph /  14.5km/h 61% 0.00in /  0mm
18:04 72.4 °F /  22.4 °C 58.7 °F /  14.8 °C 30.08in /  1018.5hPa West 2.0mph /  3.2km/h 5.0mph /  8km/h 62% 0.00in /  0mm
18:09 72.4 °F /  22.4 °C 59.1 °F /  15.1 °C 30.09in /  1018.8hPa WSW 3.0mph /  4.8km/h 5.0mph /  8km/h 63% 0.00in /  0mm
18:14 72.3 °F /  22.4 °C 59.0 °F /  15 °C 30.09in /  1018.8hPa SW 3.0mph /  4.8km/h 4.0mph /  6.4km/h 63% 0.00in /  0mm
18:19 72.3 °F /  22.4 °C 59.0 °F /  15 °C 30.09in /  1018.8hPa SW 3.0mph /  4.8km/h 5.0mph /  8km/h 63% 0.00in /  0mm
18:24 72.3 °F /  22.4 °C 59.0 °F /  15 °C 30.09in /  1018.8hPa WSW 3.0mph /  4.8km/h 3.0mph /  4.8km/h 63% 0.00in /  0mm
18:29 72.4 °F /  22.4 °C 59.1 °F /  15.1 °C 30.09in /  1018.8hPa SW 6.0mph /  9.7km/h 6.0mph /  9.7km/h 63% 0.00in /  0mm
18:34 72.2 °F /  22.3 °C 58.9 °F /  14.9 °C 30.09in /  1018.8hPa SW 4.0mph /  6.4km/h 6.0mph /  9.7km/h 63% 0.00in /  0mm
18:39 72.2 °F /  22.3 °C 58.9 °F /  14.9 °C 30.09in /  1018.8hPa SW 5.0mph /  8km/h 6.0mph /  9.7km/h 63% 0.00in /  0mm
18:44 72.1 °F /  22.3 °C 59.3 °F /  15.2 °C 30.09in /  1018.8hPa SSW 2.0mph /  3.2km/h 4.0mph /  6.4km/h 64% 0.00in /  0mm
18:49 72.0 °F /  22.2 °C 58.7 °F /  14.8 °C 30.09in /  1018.8hPa SSW 4.0mph /  6.4km/h 5.0mph /  8km/h 63% 0.00in /  0mm
18:54 71.8 °F /  22.1 °C 59.4 °F /  15.2 °C 30.09in /  1018.8hPa SW 4.0mph /  6.4km/h 4.0mph /  6.4km/h 65% 0.00in /  0mm
18:59 71.6 °F /  22 °C 59.2 °F /  15.1 °C 30.09in /  1018.8hPa SSW 2.0mph /  3.2km/h 4.0mph /  6.4km/h 65% 0.00in /  0mm
19:04 71.3 °F /  21.8 °C 58.9 °F /  14.9 °C 30.09in /  1018.8hPa South 3.0mph /  4.8km/h 3.0mph /  4.8km/h 65% 0.00in /  0mm
19:09 71.2 °F /  21.8 °C 58.8 °F /  14.9 °C 30.09in /  1018.8hPa South 1.0mph /  1.6km/h 2.0mph /  3.2km/h 65% 0.00in /  0mm
19:15 71.0 °F /  21.7 °C 58.7 °F /  14.8 °C 30.09in /  1018.8hPa SSW 1.0mph /  1.6km/h 2.0mph /  3.2km/h 65% 0.00in /  0mm
19:20 70.7 °F /  21.5 °C 58.4 °F /  14.7 °C 30.09in /  1018.8hPa WSW 1.0mph /  1.6km/h 1.0mph /  1.6km/h 65% 0.00in /  0mm
19:25 70.3 °F /  21.3 °C 58.8 °F /  14.9 °C 30.09in /  1018.8hPa Calm   1.0mph /  1.6km/h 67% 0.00in /  0mm
19:30 69.9 °F /  21.1 °C 58.5 °F /  14.7 °C 30.09in /  1018.8hPa Calm     67% 0.00in /  0mm
19:35 69.7 °F /  20.9 °C 58.3 °F /  14.6 °C 30.09in /  1018.8hPa SW 1.0mph /  1.6km/h 1.0mph /  1.6km/h 67% 0.00in /  0mm
19:40 69.7 °F /  20.9 °C 58.3 °F /  14.6 °C 30.09in /  1018.8hPa Calm   1.0mph /  1.6km/h 67% 0.00in /  0mm
19:45 69.5 °F /  20.8 °C 58.5 °F /  14.7 °C 30.09in /  1018.8hPa Calm     68% 0.00in /  0mm
19:50 69.3 °F /  20.7 °C 58.3 °F /  14.6 °C 30.09in /  1018.8hPa Calm   1.0mph /  1.6km/h 68% 0.00in /  0mm
19:55 69.0 °F /  20.6 °C 58.4 °F /  14.7 °C 30.09in /  1018.8hPa Calm     69% 0.00in /  0mm
20:00 68.8 °F /  20.4 °C 58.2 °F /  14.6 °C 30.09in /  1018.8hPa Calm     69% 0.00in /  0mm
20:05 68.6 °F /  20.3 °C 58.4 °F /  14.7 °C 30.09in /  1018.8hPa Calm     70% 0.00in /  0mm
20:10 68.4 °F /  20.2 °C 58.2 °F /  14.6 °C 30.09in /  1018.8hPa Calm     70% 0.00in /  0mm
20:15 68.2 °F /  20.1 °C 58.0 °F /  14.4 °C 30.10in /  1019.2hPa Calm     70% 0.00in /  0mm
20:20 68.0 °F /  20 °C 57.9 °F /  14.4 °C 30.10in /  1019.2hPa Calm     70% 0.00in /  0mm
20:25 67.5 °F /  19.7 °C 57.4 °F /  14.1 °C 30.10in /  1019.2hPa Calm     70% 0.00in /  0mm
20:30 67.2 °F /  19.6 °C 57.5 °F /  14.2 °C 30.10in /  1019.2hPa Calm     71% 0.00in /  0mm
20:35 67.4 °F /  19.7 °C 57.7 °F /  14.3 °C 30.10in /  1019.2hPa Calm     71% 0.00in /  0mm
20:36 67.5 °F /  19.7 °C 57.4 °F /  14.1 °C 30.10in /  1019.2hPa Calm     70% 0.00in /  0mm
20:41 67.8 °F /  19.9 °C 57.7 °F /  14.3 °C 30.10in /  1019.2hPa Calm     70% 0.00in /  0mm
20:46 67.9 °F /  19.9 °C 57.4 °F /  14.1 °C 30.10in /  1019.2hPa Calm     69% 0.00in /  0mm
20:51 67.9 °F /  19.9 °C 57.4 °F /  14.1 °C 30.10in /  1019.2hPa Calm     69% 0.00in /  0mm
20:56 67.9 °F /  19.9 °C 57.4 °F /  14.1 °C 30.10in /  1019.2hPa Calm     69% 0.00in /  0mm
21:01 67.8 °F /  19.9 °C 57.3 °F /  14.1 °C 30.10in /  1019.2hPa Calm     69% 0.00in /  0mm
21:06 67.9 °F /  19.9 °C 57.4 °F /  14.1 °C 30.10in /  1019.2hPa Calm     69% 0.00in /  0mm
21:11 67.5 °F /  19.7 °C 57.4 °F /  14.1 °C 30.10in /  1019.2hPa Calm     70% 0.00in /  0mm
21:16 67.1 °F /  19.5 °C 57.4 °F /  14.1 °C 30.11in /  1019.5hPa Calm     71% 0.00in /  0mm
21:21 66.7 °F /  19.3 °C 57.8 °F /  14.3 °C 30.11in /  1019.5hPa Calm     73% 0.00in /  0mm
21:26 66.5 °F /  19.2 °C 57.6 °F /  14.2 °C 30.11in /  1019.5hPa Calm     73% 0.00in /  0mm
21:31 66.8 °F /  19.3 °C 57.5 °F /  14.2 °C 30.11in /  1019.5hPa Calm     72% 0.00in /  0mm
21:36 66.5 °F /  19.2 °C 57.6 °F /  14.2 °C 30.11in /  1019.5hPa Calm     73% 0.00in /  0mm
21:41 66.1 °F /  18.9 °C 57.2 °F /  14 °C 30.11in /  1019.5hPa Calm     73% 0.00in /  0mm
21:46 66.1 °F /  18.9 °C 57.2 °F /  14 °C 30.11in /  1019.5hPa Calm     73% 0.00in /  0mm
21:51 66.6 °F /  19.2 °C 57.7 °F /  14.3 °C 30.11in /  1019.5hPa Calm     73% 0.00in /  0mm
21:56 66.4 °F /  19.1 °C 57.9 °F /  14.4 °C 30.11in /  1019.5hPa ESE 1.0mph /  1.6km/h 1.0mph /  1.6km/h 74% 0.00in /  0mm
22:01 65.7 °F /  18.7 °C 57.9 °F /  14.4 °C 30.11in /  1019.5hPa ESE 1.0mph /  1.6km/h 1.0mph /  1.6km/h 76% 0.00in /  0mm
22:06 65.9 °F /  18.8 °C 57.4 °F /  14.1 °C 30.11in /  1019.5hPa East 2.0mph /  3.2km/h 2.0mph /  3.2km/h 74% 0.00in /  0mm
22:11 66.4 °F /  19.1 °C 57.5 °F /  14.2 °C 30.11in /  1019.5hPa East 2.0mph /  3.2km/h 2.0mph /  3.2km/h 73% 0.00in /  0mm
22:16 66.2 °F /  19 °C 57.3 °F /  14.1 °C 30.11in /  1019.5hPa Calm   1.0mph /  1.6km/h 73% 0.00in /  0mm
22:21 65.8 °F /  18.8 °C 57.3 °F /  14.1 °C 30.11in /  1019.5hPa East 1.0mph /  1.6km/h 1.0mph /  1.6km/h 74% 0.00in /  0mm
22:26 65.6 °F /  18.7 °C 57.5 °F /  14.2 °C 30.11in /  1019.5hPa East 2.0mph /  3.2km/h 2.0mph /  3.2km/h 75% 0.00in /  0mm
22:31 65.8 °F /  18.8 °C 57.3 °F /  14.1 °C 30.11in /  1019.5hPa East 2.0mph /  3.2km/h 2.0mph /  3.2km/h 74% 0.00in /  0mm
22:36 66.0 °F /  18.9 °C 57.5 °F /  14.2 °C 30.11in /  1019.5hPa East 1.0mph /  1.6km/h 2.0mph /  3.2km/h 74% 0.00in /  0mm
22:42 65.8 °F /  18.8 °C 57.3 °F /  14.1 °C 30.11in /  1019.5hPa East 1.0mph /  1.6km/h 1.0mph /  1.6km/h 74% 0.00in /  0mm
22:47 65.8 °F /  18.8 °C 57.3 °F /  14.1 °C 30.11in /  1019.5hPa ESE 2.0mph /  3.2km/h 2.0mph /  3.2km/h 74% 0.00in /  0mm
22:52 65.8 °F /  18.8 °C 57.3 °F /  14.1 °C 30.11in /  1019.5hPa ESE 2.0mph /  3.2km/h 3.0mph /  4.8km/h 74% 0.00in /  0mm
22:57 65.3 °F /  18.5 °C 57.2 °F /  14 °C 30.11in /  1019.5hPa ESE 2.0mph /  3.2km/h 3.0mph /  4.8km/h 75% 0.00in /  0mm
23:02 64.9 °F /  18.3 °C 57.2 °F /  14 °C 30.11in /  1019.5hPa ESE 3.0mph /  4.8km/h 3.0mph /  4.8km/h 76% 0.00in /  0mm
23:07 64.9 °F /  18.3 °C 57.5 °F /  14.2 °C 30.11in /  1019.5hPa ESE 3.0mph /  4.8km/h 3.0mph /  4.8km/h 77% 0.00in /  0mm
23:12 65.1 °F /  18.4 °C 57.4 °F /  14.1 °C 30.11in /  1019.5hPa East 2.0mph /  3.2km/h 3.0mph /  4.8km/h 76% 0.00in /  0mm
23:17 65.1 °F /  18.4 °C 57.4 °F /  14.1 °C 30.11in /  1019.5hPa ESE 2.0mph /  3.2km/h 3.0mph /  4.8km/h 76% 0.00in /  0mm
23:22 65.1 °F /  18.4 °C 57.4 °F /  14.1 °C 30.11in /  1019.5hPa East 2.0mph /  3.2km/h 3.0mph /  4.8km/h 76% 0.00in /  0mm
23:27 65.0 °F /  18.3 °C 57.3 °F /  14.1 °C 30.11in /  1019.5hPa East 2.0mph /  3.2km/h 2.0mph /  3.2km/h 76% 0.00in /  0mm
23:32 65.0 °F /  18.3 °C 57.3 °F /  14.1 °C 30.11in /  1019.5hPa East 2.0mph /  3.2km/h 2.0mph /  3.2km/h 76% 0.00in /  0mm
23:37 65.1 °F /  18.4 °C 57.4 °F /  14.1 °C 30.11in /  1019.5hPa East 2.0mph /  3.2km/h 2.0mph /  3.2km/h 76% 0.00in /  0mm
23:42 65.2 °F /  18.4 °C 57.5 °F /  14.2 °C 30.11in /  1019.5hPa East 1.0mph /  1.6km/h 1.0mph /  1.6km/h 76% 0.00in /  0mm
23:47 65.2 °F /  18.4 °C 57.5 °F /  14.2 °C 30.11in /  1019.5hPa Calm   1.0mph /  1.6km/h 76% 0.00in /  0mm
23:52 65.0 °F /  18.3 °C 57.3 °F /  14.1 °C 30.11in /  1019.5hPa Calm   1.0mph /  1.6km/h 76% 0.00in /  0mm
23:57 64.3 °F /  17.9 °C 57.0 °F /  13.9 °C 30.11in /  1019.5hPa East 1.0mph /  1.6km/h 1.0mph /  1.6km/h 77% 0.00in /  0mm
Compliments of Weather Underground